Time;durP1;ratioP1;P1;durP2;ratioP2;P2;SDS_P1;SDS_P2;PMS_P1;PMS_P2;Temp;Humidity;BMP_temperature;BMP_pressure;BME280_temperature;BME280_humidity;BME280_pressure;Samples;Min_cycle;Max_cycle;Signal;HPM_P1;HPM_P2
2021/07/16 00:01:55;;;;;;;2.60;1.70;;;;;;;17.74;82.07;97646.06;5051434;28;20392;-76
2021/07/16 00:04:21;;;;;;;11.45;2.30;;;;;;;17.79;81.48;97650.56;5051221;28;20036;-75
2021/07/16 00:06:47;;;;;;;6.60;2.30;;;;;;;17.52;82.48;97636.25;5051703;28;20036;-75
2021/07/16 00:09:13;;;;;;;3.95;1.90;;;;;;;17.42;84.03;97647.78;5050222;28;20029;-75
2021/07/16 00:11:38;;;;;;;3.70;2.53;;;;;;;17.39;83.68;97642.16;5051354;28;20375;-74
2021/07/16 00:14:04;;;;;;;4.72;2.10;;;;;;;17.39;83.95;97640.19;5033485;28;20036;-75
2021/07/16 00:16:30;;;;;;;3.67;2.03;;;;;;;17.25;85.23;97647.25;5051555;28;20394;-75
2021/07/16 00:18:56;;;;;;;9.23;2.13;;;;;;;17.38;84.68;97646.09;5033172;28;20029;-74
2021/07/16 00:21:21;;;;;;;5.50;2.17;;;;;;;17.51;84.46;97656.00;5041670;28;20063;-75
2021/07/16 00:23:47;;;;;;;4.10;2.30;;;;;;;17.54;84.07;97658.84;5041424;28;20020;-75
2021/07/16 00:26:14;;;;;;;5.35;1.83;;;;;;;17.50;84.67;97663.47;5051214;28;20029;-74
2021/07/16 00:28:39;;;;;;;6.38;2.20;;;;;;;17.35;85.30;97655.09;5033115;28;20533;-74
2021/07/16 00:31:05;;;;;;;3.38;2.25;;;;;;;17.40;85.37;97654.84;5051243;28;20025;-74
2021/07/16 00:33:30;;;;;;;4.30;1.77;;;;;;;17.30;86.11;97636.75;5050983;28;20508;-75
2021/07/16 00:35:55;;;;;;;4.78;2.00;;;;;;;17.11;86.19;97645.63;5033254;28;20075;-74
2021/07/16 00:38:21;;;;;;;6.88;2.15;;;;;;;17.03;86.95;97651.28;5050996;28;20029;-75
2021/07/16 00:40:46;;;;;;;5.63;2.50;;;;;;;17.10;85.73;97665.34;5050970;28;20025;-75
2021/07/16 00:43:12;;;;;;;5.38;3.40;;;;;;;17.20;86.27;97656.56;5050767;28;20036;-74
2021/07/16 00:45:37;;;;;;;4.70;2.60;;;;;;;17.40;85.99;97671.44;5032953;28;20076;-75
2021/07/16 00:48:05;;;;;;;5.90;2.30;;;;;;;17.40;84.90;97663.94;5050944;28;20032;-76
2021/07/16 00:50:36;;;;;;;4.97;2.60;;;;;;;17.32;84.41;97675.13;5051080;28;20032;-75
2021/07/16 00:53:02;;;;;;;9.68;2.40;;;;;;;17.30;85.49;97669.13;5050674;28;20040;-76
2021/07/16 00:55:30;;;;;;;5.00;2.38;;;;;;;17.33;84.53;97662.91;5045569;28;20017;-75
2021/07/16 00:57:56;;;;;;;2.53;1.98;;;;;;;17.17;85.59;97665.53;5043452;28;20028;-76
2021/07/16 01:00:22;;;;;;;4.53;2.42;;;;;;;16.89;87.26;97659.88;5030123;28;20429;-77
2021/07/16 01:02:47;;;;;;;5.45;2.15;;;;;;;17.01;88.28;97668.19;5029466;28;20118;-76
2021/07/16 01:05:15;;;;;;;6.63;3.00;;;;;;;16.90;87.36;97678.09;5029226;28;20096;-76
2021/07/16 01:07:41;;;;;;;4.05;2.65;;;;;;;16.80;87.84;97670.22;5033403;28;20552;-74
2021/07/16 01:10:09;;;;;;;7.20;2.75;;;;;;;16.81;87.50;97671.84;5041029;28;20059;-74
2021/07/16 01:12:36;;;;;;;6.07;2.33;;;;;;;16.81;87.43;97671.03;5040436;28;20032;-77
2021/07/16 01:15:03;;;;;;;4.13;2.60;;;;;;;16.86;88.14;97671.63;5050601;28;20063;-73
2021/07/16 01:17:32;;;;;;;4.13;2.28;;;;;;;16.79;88.43;97676.91;5051522;28;20865;-76
2021/07/16 01:20:01;;;;;;;6.35;3.25;;;;;;;16.86;87.10;97682.69;5053081;28;20449;-73
2021/07/16 01:22:29;;;;;;;5.72;3.00;;;;;;;16.91;86.16;97674.19;5050389;28;20032;-74
2021/07/16 01:24:56;;;;;;;8.27;2.40;;;;;;;17.36;85.24;97684.31;5050479;28;20032;-74
2021/07/16 01:27:22;;;;;;;10.95;3.20;;;;;;;17.40;84.92;97682.50;5050037;28;20025;-74
2021/07/16 01:29:49;;;;;;;4.57;2.55;;;;;;;17.39;83.73;97670.63;5031723;28;20028;-77
2021/07/16 01:32:18;;;;;;;6.13;3.00;;;;;;;17.21;83.71;97672.00;5029010;28;20526;-74
2021/07/16 01:34:45;;;;;;;6.07;2.72;;;;;;;17.33;83.64;97674.78;5039220;28;20033;-75
2021/07/16 01:37:10;;;;;;;4.43;3.03;;;;;;;17.16;83.68;97668.66;5031885;28;20048;-74
2021/07/16 01:39:37;;;;;;;6.45;2.67;;;;;;;17.42;82.93;97660.81;5049832;28;20025;-74
2021/07/16 01:42:12;;;;;;;3.17;2.33;;;;;;;17.30;83.54;97663.59;5049494;28;20040;-74
2021/07/16 01:44:41;;;;;;;5.07;2.63;;;;;;;17.12;83.54;97666.59;5049369;28;20033;-74
2021/07/16 01:47:07;;;;;;;2.75;2.00;;;;;;;17.00;84.24;97665.78;5031686;28;20029;-74
2021/07/16 01:49:33;;;;;;;3.17;2.47;;;;;;;16.92;84.53;97652.84;5049972;28;20030;-74
2021/07/16 01:51:58;;;;;;;3.13;2.22;;;;;;;16.96;83.54;97667.63;5049848;28;20032;-74
2021/07/16 01:54:24;;;;;;;5.07;2.25;;;;;;;17.02;84.14;97664.28;5049651;28;20143;-74
2021/07/16 01:56:50;;;;;;;8.65;2.85;;;;;;;17.14;82.87;97669.00;5049406;28;20017;-76
2021/07/16 01:59:16;;;;;;;4.53;2.33;;;;;;;17.22;82.33;97665.34;5031808;28;20033;-78
2021/07/16 02:01:41;;;;;;;8.40;2.22;;;;;;;17.39;81.67;97667.03;5049544;28;20477;-75
2021/07/16 02:04:07;;;;;;;4.40;2.80;;;;;;;17.24;82.02;97656.69;5031611;28;20032;-74
2021/07/16 02:06:33;;;;;;;3.22;1.63;;;;;;;17.46;81.24;97654.25;5048582;28;20028;-74
2021/07/16 02:08:59;;;;;;;3.42;2.58;;;;;;;17.36;81.04;97653.91;5038276;28;20482;-74
2021/07/16 02:11:26;;;;;;;4.88;3.05;;;;;;;17.14;82.42;97650.47;5045411;28;20098;-75
2021/07/16 02:13:52;;;;;;;4.80;2.60;;;;;;;17.21;82.64;97658.19;5048601;28;20032;-76
2021/07/16 02:16:19;;;;;;;7.05;2.03;;;;;;;17.32;83.63;97662.09;5049066;28;20098;-74
2021/07/16 02:18:49;;;;;;;4.85;2.28;;;;;;;17.38;81.81;97670.97;5031229;28;20033;-74
2021/07/16 02:21:15;;;;;;;7.07;2.17;;;;;;;17.29;82.30;97662.78;5049841;28;20397;-74
2021/07/16 02:23:41;;;;;;;3.70;2.35;;;;;;;17.25;82.47;97674.88;5031259;28;20025;-74
2021/07/16 02:26:06;;;;;;;6.95;2.45;;;;;;;17.17;83.10;97660.00;5049322;28;20036;-73
2021/07/16 02:28:32;;;;;;;5.25;2.95;;;;;;;17.20;83.36;97658.53;5049241;28;20131;-73
2021/07/16 02:30:59;;;;;;;6.50;2.90;;;;;;;17.23;83.16;97657.84;5049234;28;20024;-76
2021/07/16 02:33:25;;;;;;;5.72;2.40;;;;;;;17.10;84.01;97646.78;5049184;28;20572;-73
2021/07/16 02:35:51;;;;;;;4.53;3.05;;;;;;;17.17;84.21;97653.69;5049359;28;20120;-74
2021/07/16 02:38:17;;;;;;;5.75;3.53;;;;;;;17.26;83.93;97657.16;5047834;28;20041;-74
2021/07/16 02:40:43;;;;;;;4.88;2.20;;;;;;;17.37;84.28;97653.56;5049997;28;20116;-74
2021/07/16 02:43:09;;;;;;;4.53;2.78;;;;;;;17.50;83.87;97655.19;5053742;28;20029;-74
2021/07/16 02:45:35;;;;;;;10.85;3.20;;;;;;;17.49;83.90;97655.50;5034099;28;20028;-74
2021/07/16 02:48:00;;;;;;;3.78;2.67;;;;;;;17.17;86.25;97648.16;5042682;28;20095;-74
2021/07/16 02:50:29;;;;;;;6.35;3.20;;;;;;;17.24;86.15;97642.84;5032609;28;20017;-73
2021/07/16 02:52:55;;;;;;;4.15;2.45;;;;;;;17.29;85.54;97653.69;5040934;28;20424;-77
2021/07/16 02:55:21;;;;;;;3.65;2.83;;;;;;;17.21;84.56;97640.78;5045842;28;20017;-76
2021/07/16 02:57:47;;;;;;;3.65;2.28;;;;;;;16.95;85.99;97639.16;5052541;28;20107;-74
2021/07/16 03:00:18;;;;;;;5.53;2.35;;;;;;;16.86;86.93;97638.47;5048140;28;20022;-75
2021/07/16 03:02:46;;;;;;;12.73;2.55;;;;;;;17.11;85.24;97642.88;5042531;28;20117;-74
2021/07/16 03:05:16;;;;;;;6.28;2.58;;;;;;;17.01;86.45;97640.56;5051985;28;20033;-76
2021/07/16 03:07:42;;;;;;;5.78;2.67;;;;;;;16.79;87.17;97637.44;5035710;28;20025;-77
2021/07/16 03:10:10;;;;;;;6.00;2.92;;;;;;;16.82;87.10;97637.53;5052765;28;20035;-78
2021/07/16 03:12:37;;;;;;;5.32;2.53;;;;;;;16.93;86.52;97638.72;5047500;28;20035;-76
2021/07/16 03:15:08;;;;;;;3.45;2.33;;;;;;;16.82;86.92;97626.47;5054588;28;20059;-76
2021/07/16 03:17:34;;;;;;;2.85;2.25;;;;;;;16.83;87.17;97633.63;5038981;28;20082;-78
2021/07/16 03:20:00;;;;;;;6.05;2.58;;;;;;;16.81;86.92;97643.41;5035414;28;20036;-77
2021/07/16 03:22:25;;;;;;;5.35;3.03;;;;;;;16.85;86.63;97634.09;5052609;28;20366;-76
2021/07/16 03:24:51;;;;;;;7.70;2.85;;;;;;;16.86;86.22;97649.53;5052030;28;20083;-76
2021/07/16 03:27:16;;;;;;;5.47;2.50;;;;;;;16.87;86.26;97647.56;5052733;28;20033;-75
2021/07/16 03:29:42;;;;;;;3.75;2.13;;;;;;;16.82;86.66;97647.81;5035027;28;20078;-78
2021/07/16 03:32:07;;;;;;;5.30;2.33;;;;;;;16.96;86.58;97664.84;5052789;28;20464;-75
2021/07/16 03:34:33;;;;;;;6.05;2.33;;;;;;;17.07;86.35;97661.28;5052149;28;20036;-75
2021/07/16 03:36:58;;;;;;;6.10;2.85;;;;;;;16.87;87.76;97648.38;5053062;28;20025;-77
2021/07/16 03:39:23;;;;;;;8.98;5.03;;;;;;;16.78;85.30;97649.63;5034314;28;20378;-76
2021/07/16 03:41:49;;;;;;;11.55;6.40;;;;;;;16.87;84.74;97651.16;5034615;28;20028;-76
2021/07/16 03:44:14;;;;;;;6.68;3.88;;;;;;;17.17;84.36;97656.44;5033653;28;20124;-79
2021/07/16 03:46:40;;;;;;;10.05;3.25;;;;;;;17.17;83.05;97653.69;5052265;28;20434;-77
2021/07/16 03:49:06;;;;;;;5.50;3.05;;;;;;;16.91;84.36;97659.56;5052201;28;20112;-78
2021/07/16 03:51:32;;;;;;;6.57;3.65;;;;;;;16.79;84.93;97663.09;5053750;28;20029;-75
2021/07/16 03:53:58;;;;;;;13.07;6.38;;;;;;;16.80;84.92;97661.94;5052145;28;20086;-79
2021/07/16 03:56:23;;;;;;;13.32;7.57;;;;;;;16.94;84.79;97659.69;5052217;28;20013;-78
2021/07/16 03:58:48;;;;;;;18.27;7.22;;;;;;;16.78;85.21;97663.44;5051563;28;20096;-76
2021/07/16 04:01:14;;;;;;;10.32;4.78;;;;;;;16.61;86.11;97656.16;5051653;28;20053;-78
2021/07/16 04:03:40;;;;;;;12.65;6.05;;;;;;;16.70;86.64;97667.91;5052104;28;20032;-77
2021/07/16 04:06:06;;;;;;;11.45;5.35;;;;;;;16.64;86.85;97646.38;5052243;28;20033;-76
2021/07/16 04:08:35;;;;;;;14.05;5.75;;;;;;;16.74;85.67;97663.31;5051780;28;20089;-76
2021/07/16 04:11:00;;;;;;;11.93;5.65;;;;;;;16.88;84.85;97661.06;5049949;28;20025;-77
2021/07/16 04:13:26;;;;;;;11.95;5.93;;;;;;;16.93;84.22;97674.63;5051926;28;20051;-79
2021/07/16 04:15:51;;;;;;;12.32;4.90;;;;;;;17.08;84.03;97679.47;5053305;28;20124;-86
2021/07/16 04:18:16;;;;;;;7.28;3.88;;;;;;;17.18;83.45;97680.19;5055900;28;20385;-86
2021/07/16 04:20:42;;;;;;;3.97;2.67;;;;;;;16.97;84.96;97683.06;5054764;28;20035;-84
2021/07/16 04:23:08;;;;;;;10.60;2.53;;;;;;;16.92;85.11;97686.84;5055909;28;20029;-86
2021/07/16 04:25:34;;;;;;;6.57;3.25;;;;;;;17.00;84.11;97688.69;5056030;28;20033;-89
2021/07/16 04:28:03;;;;;;;6.03;3.25;;;;;;;17.19;82.83;97684.56;5055213;28;20113;-89
2021/07/16 04:30:30;;;;;;;6.13;2.67;;;;;;;16.99;83.16;97692.59;5055113;28;20025;-85
2021/07/16 04:32:58;;;;;;;5.68;2.70;;;;;;;17.06;83.11;97692.84;5054902;28;20500;-88
2021/07/16 04:35:24;;;;;;;3.05;2.35;;;;;;;16.95;82.64;97688.91;5052739;28;20170;-81
2021/07/16 04:37:49;;;;;;;2.70;2.00;;;;;;;16.89;82.55;97695.81;5054059;28;20115;-85
2021/07/16 04:40:19;;;;;;;6.30;3.08;;;;;;;17.09;82.19;97696.88;5054580;28;20021;-87
2021/07/16 04:42:45;;;;;;;9.63;3.03;;;;;;;17.05;82.95;97702.28;5035767;28;20033;-86
2021/07/16 04:45:12;;;;;;;5.35;2.33;;;;;;;17.05;82.12;97702.28;5053181;28;20032;-82
2021/07/16 04:47:38;;;;;;;3.78;2.50;;;;;;;17.07;81.46;97699.97;5046723;28;20017;-83
2021/07/16 04:50:04;;;;;;;4.78;1.92;;;;;;;17.11;82.07;97700.91;5033156;28;20493;-83
2021/07/16 04:52:30;;;;;;;9.77;3.08;;;;;;;17.40;81.09;97701.84;5031781;28;20394;-84
2021/07/16 04:54:55;;;;;;;6.13;2.85;;;;;;;17.62;79.65;97712.47;5032938;28;20026;-83
2021/07/16 04:57:20;;;;;;;2.88;2.40;;;;;;;17.52;79.86;97702.66;5043717;28;20444;-78
2021/07/16 04:59:46;;;;;;;6.97;3.35;;;;;;;17.67;80.90;97701.97;5032149;28;20057;-76
2021/07/16 05:02:11;;;;;;;7.75;2.83;;;;;;;17.75;80.52;97702.19;5050588;28;20074;-79
2021/07/16 05:04:37;;;;;;;6.43;2.88;;;;;;;17.93;79.48;97698.81;5050538;28;20025;-77
2021/07/16 05:07:06;;;;;;;3.50;2.13;;;;;;;17.49;79.84;97672.91;5028929;28;20470;-82
2021/07/16 05:09:38;;;;;;;6.10;2.42;;;;;;;17.76;79.54;97690.75;5028038;28;20055;-78
2021/07/16 05:12:04;;;;;;;4.78;2.50;;;;;;;17.97;80.78;97696.16;5032938;28;20041;-79
2021/07/16 05:14:48;;;;;;;4.13;2.65;;;;;;;17.86;82.01;97698.59;5014852;28;20053;-77
2021/07/16 05:17:13;;;;;;;8.80;2.88;;;;;;;17.79;82.93;97703.13;5034575;28;20482;-79
2021/07/16 05:19:39;;;;;;;4.53;2.67;;;;;;;17.84;83.40;97689.03;5032436;28;20032;-79
2021/07/16 05:22:04;;;;;;;7.82;2.90;;;;;;;17.95;83.08;97702.03;5032538;28;20025;-81
2021/07/16 05:24:30;;;;;;;9.65;2.47;;;;;;;17.98;82.24;97703.31;5032189;28;20543;-81
2021/07/16 05:26:56;;;;;;;7.93;2.80;;;;;;;17.96;82.49;97700.88;5053501;28;20025;-82
2021/07/16 05:29:22;;;;;;;5.57;2.30;;;;;;;18.20;81.90;97703.59;5053535;28;20494;-84
2021/07/16 05:31:47;;;;;;;5.18;2.80;;;;;;;18.16;81.52;97701.88;5053399;28;20037;-84
2021/07/16 05:34:13;;;;;;;9.07;2.30;;;;;;;18.41;80.49;97692.31;5037369;28;20031;-83
2021/07/16 05:36:38;;;;;;;5.10;2.63;;;;;;;18.45;80.20;97692.44;5051392;28;20036;-80
2021/07/16 05:39:05;;;;;;;5.30;2.67;;;;;;;18.22;80.75;97691.34;5051089;28;20100;-81
2021/07/16 05:41:31;;;;;;;4.10;2.80;;;;;;;17.71;82.44;97695.75;5049061;28;20444;-78
2021/07/16 05:43:57;;;;;;;5.85;2.78;;;;;;;17.47;84.44;97708.44;5048017;28;20466;-79
2021/07/16 05:46:23;;;;;;;4.05;2.65;;;;;;;17.43;84.58;97698.38;5032616;28;20025;-81
2021/07/16 05:48:49;;;;;;;3.75;3.15;;;;;;;17.75;84.33;97714.06;5032345;28;20033;-80
2021/07/16 05:51:15;;;;;;;6.22;2.85;;;;;;;17.74;83.19;97717.19;5030613;28;20021;-78
2021/07/16 05:53:41;;;;;;;4.35;2.63;;;;;;;17.79;81.95;97709.47;5028069;28;20105;-78
2021/07/16 05:56:06;;;;;;;3.75;2.60;;;;;;;18.07;81.83;97721.38;5030890;28;20368;-77
2021/07/16 05:58:32;;;;;;;8.20;3.75;;;;;;;18.07;80.57;97720.59;5049266;28;20070;-78
2021/07/16 06:00:57;;;;;;;8.13;4.85;;;;;;;18.18;81.23;97728.06;5048515;28;20035;-81
2021/07/16 06:03:23;;;;;;;5.15;2.83;;;;;;;18.13;79.52;97724.72;5049146;28;20481;-77
2021/07/16 06:05:49;;;;;;;11.23;5.63;;;;;;;18.20;78.36;97720.19;5050103;28;20037;-77
2021/07/16 06:08:15;;;;;;;8.45;5.07;;;;;;;18.22;77.92;97721.81;5049311;28;20032;-78
2021/07/16 06:10:40;;;;;;;11.93;3.70;;;;;;;18.63;76.75;97719.50;5049341;28;20043;-80
2021/07/16 06:13:06;;;;;;;5.93;2.47;;;;;;;18.71;76.09;97714.94;5048399;28;20384;-78
2021/07/16 06:15:32;;;;;;;5.70;3.03;;;;;;;18.68;74.64;97726.75;5048347;28;20029;-77
2021/07/16 06:17:57;;;;;;;92.20;54.58;;;;;;;18.80;74.49;97725.88;5032827;28;20088;-80
2021/07/16 06:20:23;;;;;;;7.05;3.75;;;;;;;18.85;75.14;97726.44;5043015;28;20401;-78
2021/07/16 06:22:48;;;;;;;4.65;2.50;;;;;;;18.74;75.29;97722.56;5049914;28;22033;-78
2021/07/16 06:25:17;;;;;;;22.58;14.85;;;;;;;18.85;74.51;97729.22;5031947;28;20551;-77
2021/07/16 06:27:43;;;;;;;5.88;2.78;;;;;;;19.24;73.93;97731.03;5028543;28;20041;-78
2021/07/16 06:30:10;;;;;;;8.95;4.80;;;;;;;19.50;73.09;97743.59;5030020;28;20437;-79
2021/07/16 06:32:36;;;;;;;5.78;3.38;;;;;;;19.32;72.09;97743.13;5029459;28;20045;-79
2021/07/16 06:35:03;;;;;;;7.38;2.92;;;;;;;19.44;72.48;97742.25;5030349;28;20014;-78
2021/07/16 06:37:29;;;;;;;8.27;3.60;;;;;;;19.40;73.74;97749.69;5012564;28;20072;-77
2021/07/16 06:39:56;;;;;;;8.70;3.63;;;;;;;19.25;73.73;97743.75;5012151;28;20633;-79
2021/07/16 06:42:22;;;;;;;8.13;2.78;;;;;;;19.40;73.58;97755.22;5028766;28;20514;-80
2021/07/16 06:44:47;;;;;;;7.55;3.30;;;;;;;19.19;73.77;97747.94;5029639;28;20037;-78
2021/07/16 06:47:13;;;;;;;7.28;3.00;;;;;;;19.15;72.95;97751.78;5013078;28;20037;-79
2021/07/16 06:49:38;;;;;;;7.18;3.13;;;;;;;19.15;72.96;97755.38;5011470;28;20025;-80
2021/07/16 06:52:04;;;;;;;8.75;3.50;;;;;;;19.27;72.92;97762.78;5012141;28;20378;-79
2021/07/16 06:54:33;;;;;;;4.13;2.67;;;;;;;19.24;72.80;97767.09;5011434;28;20029;-79
2021/07/16 06:56:58;;;;;;;6.18;2.80;;;;;;;19.23;72.49;97756.38;5012955;28;20030;-79
2021/07/16 06:59:23;;;;;;;9.63;3.55;;;;;;;19.12;73.40;97761.63;5033345;28;20520;-79
2021/07/16 07:01:49;;;;;;;6.05;2.92;;;;;;;19.42;72.67;97769.56;5031532;28;20064;-78
2021/07/16 07:04:15;;;;;;;6.47;3.28;;;;;;;19.52;71.71;97769.00;5003171;28;20021;-77
2021/07/16 07:06:40;;;;;;;8.80;3.00;;;;;;;19.55;71.47;97757.19;4999621;28;20112;-78
2021/07/16 07:09:06;;;;;;;9.07;3.40;;;;;;;19.60;70.88;97760.53;5016256;28;20507;-78
2021/07/16 07:11:31;;;;;;;7.50;3.42;;;;;;;19.80;70.32;97764.16;5017283;28;20095;-78
2021/07/16 07:13:57;;;;;;;5.63;3.03;;;;;;;19.81;69.66;97748.31;5018177;28;20029;-78
2021/07/16 07:16:24;;;;;;;7.82;3.13;;;;;;;20.21;68.91;97752.44;5031719;28;20137;-76
2021/07/16 07:18:49;;;;;;;5.60;3.00;;;;;;;20.70;67.09;97757.47;5007765;28;20067;-74
2021/07/16 07:21:17;;;;;;;7.75;2.80;;;;;;;21.16;65.27;97758.38;5001328;28;20805;-75
2021/07/16 07:23:45;;;;;;;5.13;2.90;;;;;;;22.03;63.13;97769.44;5017148;28;20033;-75
2021/07/16 07:26:11;;;;;;;4.63;2.50;;;;;;;22.33;63.12;97761.13;5016650;28;20137;-75
2021/07/16 07:28:37;;;;;;;6.50;2.83;;;;;;;22.14;62.36;97781.56;5028676;28;20132;-78
2021/07/16 07:31:03;;;;;;;4.78;2.10;;;;;;;22.03;62.48;97775.03;5030977;28;20026;-78
2021/07/16 07:33:28;;;;;;;8.25;3.72;;;;;;;21.80;62.72;97777.03;5030957;28;20023;-77
2021/07/16 07:35:56;;;;;;;8.27;2.92;;;;;;;20.89;65.94;97788.06;5031339;28;20457;-77
2021/07/16 07:38:22;;;;;;;6.55;2.65;;;;;;;20.93;65.75;97777.78;5024121;28;20410;-77
2021/07/16 07:40:48;;;;;;;9.32;2.97;;;;;;;20.62;67.00;97783.50;4996217;28;20034;-84
2021/07/16 07:43:19;;;;;;;11.57;3.60;;;;;;;20.30;67.75;97788.34;5028864;28;20033;-86
2021/07/16 07:45:47;;;;;;;11.18;2.97;;;;;;;20.18;68.38;97788.44;5040055;28;20040;-87
2021/07/16 07:48:12;;;;;;;9.80;3.20;;;;;;;20.14;70.37;97790.38;5041837;28;20728;-86
2021/07/16 07:50:39;;;;;;;10.18;4.53;;;;;;;20.11;70.02;97791.88;5026334;28;20025;-85
2021/07/16 07:53:04;;;;;;;11.65;4.00;;;;;;;20.09;70.31;97788.66;5017228;28;20022;-80
2021/07/16 07:55:30;;;;;;;11.20;2.97;;;;;;;19.77;70.70;97789.84;5013038;28;20025;-86
2021/07/16 07:57:55;;;;;;;4.88;2.50;;;;;;;19.77;71.71;97798.19;5032436;28;20382;-85
2021/07/16 08:00:26;;;;;;;9.27;2.80;;;;;;;19.58;74.62;97800.88;5031520;28;20052;-78
2021/07/16 08:02:51;;;;;;;13.02;3.45;;;;;;;19.42;77.94;97806.41;5004234;28;20124;-76
2021/07/16 08:05:17;;;;;;;11.63;2.80;;;;;;;19.37;75.74;97800.28;5029237;28;20053;-78
2021/07/16 08:07:43;;;;;;;7.40;3.38;;;;;;;19.33;82.51;97796.66;5025846;28;20109;-76
2021/07/16 08:10:11;;;;;;;11.43;4.40;;;;;;;18.94;85.63;97804.69;5016707;28;20049;-76
2021/07/16 08:12:37;;;;;;;5.50;3.10;;;;;;;19.24;85.72;97797.59;5022327;28;20029;-75
2021/07/16 08:15:05;;;;;;;10.10;3.60;;;;;;;19.01;83.18;97812.41;5017732;28;20053;-75
2021/07/16 08:17:31;;;;;;;9.10;3.33;;;;;;;18.98;81.86;97810.34;5021564;28;20025;-78
2021/07/16 08:19:56;;;;;;;10.13;3.70;;;;;;;18.90;81.59;97809.34;5000194;28;20368;-75
2021/07/16 08:22:22;;;;;;;12.23;3.67;;;;;;;18.97;83.47;97798.44;5003590;28;20547;-74
2021/07/16 08:24:48;;;;;;;6.20;3.20;;;;;;;19.22;81.79;97813.81;5006135;28;20032;-74
2021/07/16 08:27:13;;;;;;;6.32;3.40;;;;;;;19.23;85.21;97809.84;5027880;28;20018;-74
2021/07/16 08:29:39;;;;;;;6.15;3.70;;;;;;;19.27;82.65;97802.44;5007997;28;20548;-75
2021/07/16 08:32:05;;;;;;;4.15;2.88;;;;;;;19.37;79.04;97812.22;5028628;28;20049;-77
2021/07/16 08:34:30;;;;;;;13.60;3.67;;;;;;;19.69;77.29;97813.88;5009444;28;20028;-75
2021/07/16 08:36:56;;;;;;;12.45;4.05;;;;;;;19.73;79.60;97811.97;5004850;28;20024;-76
2021/07/16 08:39:22;;;;;;;13.18;6.07;;;;;;;19.79;84.07;97812.53;5018623;28;20030;-75
2021/07/16 08:41:48;;;;;;;7.28;4.88;;;;;;;19.94;86.23;97814.50;5019659;28;20029;-76
2021/07/16 08:44:14;;;;;;;7.15;4.28;;;;;;;20.01;88.31;97809.13;5002625;28;20021;-77
2021/07/16 08:46:43;;;;;;;7.45;3.92;;;;;;;20.32;89.89;97813.00;5001011;28;20037;-75
2021/07/16 08:49:09;;;;;;;10.32;4.75;;;;;;;20.34;88.63;97814.25;5026516;28;20076;-75
2021/07/16 08:51:37;;;;;;;8.80;3.33;;;;;;;20.14;88.62;97816.16;5012206;28;20108;-77
2021/07/16 08:54:03;;;;;;;11.10;3.85;;;;;;;19.73;88.82;97813.97;5011400;28;20026;-76
2021/07/16 08:56:35;;;;;;;9.60;4.43;;;;;;;19.58;91.24;97809.19;5011215;28;20014;-75
2021/07/16 08:59:01;;;;;;;10.70;4.10;;;;;;;19.60;88.00;97815.22;4998692;28;20034;-76
2021/07/16 09:01:26;;;;;;;6.63;4.35;;;;;;;19.44;93.05;97817.16;5001308;28;20009;-79
2021/07/16 09:04:06;;;;;;;7.40;3.90;;;;;;;19.48;92.89;97818.06;5002228;28;20103;-75
2021/07/16 09:06:52;;;;;;;10.38;4.05;;;;;;;19.53;91.96;97820.56;5009840;28;20041;-73
2021/07/16 09:09:20;;;;;;;11.25;4.22;;;;;;;19.38;95.98;97807.47;5025499;28;20025;-75
2021/07/16 09:11:52;;;;;;;9.52;4.05;;;;;;;19.32;94.81;97795.03;5009268;28;20037;-78
2021/07/16 09:14:24;;;;;;;6.78;4.35;;;;;;;19.50;95.09;97810.19;5009757;28;20124;-76
2021/07/16 09:17:19;;;;;;;7.55;4.65;;;;;;;19.40;93.81;97805.16;5009700;28;20067;-76
2021/07/16 09:19:47;;;;;;;9.23;4.18;;;;;;;19.42;95.47;97803.63;5010609;28;20049;-76
2021/07/16 09:22:16;;;;;;;9.73;4.28;;;;;;;19.58;94.18;97795.31;5005704;28;20393;-76
2021/07/16 09:24:44;;;;;;;15.48;3.95;;;;;;;19.38;94.38;97813.00;5017127;28;20120;-78
2021/07/16 09:27:28;;;;;;;6.50;3.92;;;;;;;19.32;94.58;97811.66;5026216;28;20044;-76
2021/07/16 09:29:53;;;;;;;7.20;3.70;;;;;;;19.09;98.89;97800.34;5027361;28;20037;-78
2021/07/16 09:32:19;;;;;;;9.13;4.60;;;;;;;19.47;98.29;97806.16;5012400;28;20475;-79
2021/07/16 09:34:51;;;;;;;7.10;4.32;;;;;;;19.45;96.77;97821.56;5028314;28;20025;-76
2021/07/16 09:37:16;;;;;;;9.55;4.28;;;;;;;19.35;96.16;97813.72;5014910;28;20372;-80
2021/07/16 09:39:47;;;;;;;7.85;4.32;;;;;;;19.45;95.88;97813.25;5009621;28;20395;-77
2021/07/16 09:42:13;;;;;;;11.48;4.85;;;;;;;19.34;94.09;97823.19;5025912;28;20033;-75
2021/07/16 09:44:44;;;;;;;8.90;3.90;;;;;;;19.24;96.35;97814.25;5009516;28;20049;-74
2021/07/16 09:47:19;;;;;;;7.45;3.90;;;;;;;19.35;95.50;97820.09;5027937;28;20022;-75
2021/07/16 09:49:47;;;;;;;;;;;;;;;19.58;95.48;97823.06;5025895;28;20112;-76
2021/07/16 09:52:18;;;;;;;10.85;3.53;;;;;;;19.32;92.51;97831.91;5005160;28;19967;-76
2021/07/16 09:55:08;;;;;;;6.82;4.30;;;;;;;19.27;95.90;97830.19;5017476;28;20029;-76
2021/07/16 09:57:47;;;;;;;7.75;3.85;;;;;;;19.24;95.63;97841.16;5009330;28;20486;-75
2021/07/16 10:00:26;;;;;;;9.05;3.88;;;;;;;19.40;95.44;97832.91;5026189;28;20482;-77
2021/07/16 10:02:57;;;;;;;6.07;4.00;;;;;;;19.58;95.92;97840.53;5009860;28;20118;-77
2021/07/16 10:05:23;;;;;;;8.57;3.88;;;;;;;19.51;96.34;97823.72;5027676;28;20618;-75
2021/07/16 10:07:49;;;;;;;6.07;3.60;;;;;;;19.45;95.27;97802.91;5029342;28;20029;-75
2021/07/16 10:10:22;;;;;;;8.77;4.32;;;;;;;19.66;96.97;97814.59;5010208;28;20028;-77
2021/07/16 10:12:50;;;;;;;8.07;3.88;;;;;;;19.90;96.10;97819.13;5025595;28;20029;-77
2021/07/16 10:15:23;;;;;;;9.07;4.03;;;;;;;20.40;90.21;97825.88;5025226;28;20474;-77
2021/07/16 10:17:50;;;;;;;5.50;3.50;;;;;;;20.50;91.31;97819.78;5026050;28;20406;-74
2021/07/16 10:20:18;;;;;;;5.22;2.90;;;;;;;20.59;88.96;97823.16;5008983;28;20438;-74
2021/07/16 10:22:48;;;;;;;5.80;2.67;;;;;;;20.82;82.10;97810.97;5006766;28;20009;-76
2021/07/16 10:25:18;;;;;;;6.47;2.72;;;;;;;20.74;83.92;97813.94;5015328;28;20022;-75
2021/07/16 10:27:45;;;;;;;6.22;2.65;;;;;;;20.91;82.72;97813.50;4992196;28;20046;-75
2021/07/16 10:30:13;;;;;;;3.85;1.98;;;;;;;21.10;83.00;97804.38;5008807;28;20030;-75
2021/07/16 10:32:44;;;;;;;3.95;2.78;;;;;;;20.91;80.59;97821.03;5000027;28;20018;-77
2021/07/16 10:35:20;;;;;;;3.45;3.15;;;;;;;21.17;78.71;97813.69;5018152;28;20013;-76
2021/07/16 10:37:47;;;;;;;;;;;;;;;21.36;80.30;97813.63;5009098;28;20526;-75
2021/07/16 10:40:34;;;;;;;5.88;2.20;;;;;;;21.82;78.80;97808.88;5027596;28;19901;-76
2021/07/16 10:43:00;;;;;;;3.60;2.67;;;;;;;22.69;76.14;97807.06;5026479;28;20101;-76
2021/07/16 10:45:34;;;;;;;5.00;2.00;;;;;;;22.89;72.98;97800.16;5010214;28;20129;-74
2021/07/16 10:48:11;;;;;;;5.75;2.40;;;;;;;23.49;72.88;97803.66;5027806;28;20029;-75
2021/07/16 10:50:40;;;;;;;3.30;2.28;;;;;;;23.68;71.18;97799.84;5009212;28;20040;-76
2021/07/16 10:53:12;;;;;;;3.10;1.75;;;;;;;24.42;69.61;97803.25;5027021;28;20111;-77
2021/07/16 10:55:37;;;;;;;4.15;1.95;;;;;;;24.35;65.44;97808.78;5019748;28;20033;-75
2021/07/16 10:58:33;;;;;;;5.85;1.95;;;;;;;24.83;65.02;97806.69;5016864;28;20022;-74
2021/07/16 11:01:03;;;;;;;4.15;1.77;;;;;;;24.70;65.68;97802.59;4982630;28;20120;-75
2021/07/16 11:03:41;;;;;;;4.22;2.22;;;;;;;24.67;61.94;97806.19;5011044;28;20018;-74
2021/07/16 11:06:08;;;;;;;3.45;2.10;;;;;;;24.87;58.52;97804.72;5030285;28;20479;-76
2021/07/16 11:08:34;;;;;;;5.15;2.15;;;;;;;24.44;60.54;97800.84;5030924;28;20512;-76
2021/07/16 11:11:34;;;;;;;4.03;2.17;;;;;;;24.47;61.65;97800.88;5030136;28;20490;-74
2021/07/16 11:14:00;;;;;;;1.98;1.60;;;;;;;24.55;61.57;97798.13;5008794;28;20041;-74
2021/07/16 11:16:26;;;;;;;4.22;2.42;;;;;;;24.34;60.98;97790.41;5013350;28;20022;-74
2021/07/16 11:18:59;;;;;;;5.05;1.70;;;;;;;24.79;59.92;97783.44;5020508;28;20411;-75
2021/07/16 11:21:49;;;;;;;1.65;1.27;;;;;;;25.11;58.61;97790.00;5021039;28;20034;-74
2021/07/16 11:24:15;;;;;;;3.28;1.83;;;;;;;25.66;56.26;97781.34;4995577;28;20033;-74
2021/07/16 11:26:57;;;;;;;3.30;1.92;;;;;;;25.61;58.91;97790.16;5021192;28;20033;-73
2021/07/16 11:29:29;;;;;;;1.90;1.70;;;;;;;24.90;57.89;97781.53;5030834;28;20518;-84
2021/07/16 11:32:24;;;;;;;4.50;1.63;;;;;;;24.88;57.80;97792.31;5029724;28;20075;-85
2021/07/16 11:34:50;;;;;;;4.75;1.50;;;;;;;24.09;61.51;97781.03;5029854;28;20025;-77